createdAt,value
2019-04-10T00:00:21.602Z,22.30
2019-04-10T00:02:48.064Z,23.30
2019-04-10T00:05:15.896Z,24.30
2019-04-10T00:07:42.213Z,24.80
2019-04-10T00:10:08.460Z,25.47
2019-04-10T00:12:34.519Z,26.87
2019-04-10T00:15:01.180Z,25.77
2019-04-10T00:17:27.271Z,25.57
2019-04-10T00:19:54.012Z,25.60
2019-04-10T00:22:20.175Z,24.90
2019-04-10T00:24:46.350Z,24.80
2019-04-10T00:27:12.593Z,24.77
2019-04-10T00:29:38.673Z,23.83
2019-04-10T00:32:05.662Z,23.80
2019-04-10T00:34:31.946Z,25.43
2019-04-10T00:36:58.135Z,25.17
2019-04-10T00:39:24.194Z,26.53
2019-04-10T00:41:50.239Z,27.57
2019-04-10T00:44:16.428Z,25.90
2019-04-10T00:46:42.558Z,25.93
2019-04-10T00:49:09.258Z,25.50
2019-04-10T00:51:35.543Z,23.90
2019-04-10T00:54:01.593Z,24.37
2019-04-10T00:56:28.361Z,24.43
2019-04-10T00:58:55.417Z,23.73
2019-04-10T01:01:21.663Z,24.90
2019-04-10T01:03:48.991Z,27.20
2019-04-10T01:06:15.935Z,26.57
2019-04-10T01:08:42.763Z,26.87
2019-04-10T01:11:09.379Z,25.40
2019-04-10T01:13:35.580Z,29.10
2019-04-10T01:16:03.133Z,26.03
2019-04-10T01:18:29.193Z,25.07
2019-04-10T01:20:55.679Z,24.40
2019-04-10T01:23:22.560Z,25.10
2019-04-10T01:25:48.688Z,25.23
2019-04-10T01:28:14.735Z,26.77
2019-04-10T01:30:40.783Z,24.07
2019-04-10T01:33:08.154Z,25.57
2019-04-10T01:35:34.419Z,25.83
2019-04-10T01:38:02.383Z,25.50
2019-04-10T01:40:28.925Z,27.80
2019-04-10T01:43:08.267Z,25.87
2019-04-10T01:45:23.108Z,26.57
2019-04-10T01:47:49.159Z,26.23
2019-04-10T01:50:15.215Z,24.37
2019-04-10T01:52:41.463Z,25.43
2019-04-10T01:55:17.270Z,25.50
2019-04-10T01:57:36.663Z,26.53
2019-04-10T02:00:04.995Z,24.67
2019-04-10T02:02:33.588Z,25.17
2019-04-10T02:05:00.652Z,26.20
2019-04-10T02:07:26.883Z,27.60
2019-04-10T02:09:53.933Z,27.83
2019-04-10T02:12:20.724Z,26.70
2019-04-10T02:14:46.967Z,27.30
2019-04-10T02:17:13.028Z,27.23
2019-04-10T02:19:39.107Z,27.23
2019-04-10T02:22:05.183Z,25.83
2019-04-10T02:24:31.385Z,25.10
2019-04-10T02:26:58.177Z,25.20
2019-04-10T02:29:24.359Z,25.73
2019-04-10T02:31:51.170Z,26.90
2019-04-10T02:34:19.364Z,26.40
2019-04-10T02:36:46.965Z,27.07
2019-04-10T02:39:24.394Z,26.87
2019-04-10T02:41:41.867Z,29.20
2019-04-10T02:44:08.198Z,26.67
2019-04-10T02:46:34.390Z,27.50
2019-04-10T02:49:00.539Z,25.40
2019-04-10T02:51:27.082Z,24.80
2019-04-10T02:53:55.680Z,26.17
2019-04-10T02:56:22.994Z,27.07
2019-04-10T02:58:51.358Z,25.73
2019-04-10T03:01:17.650Z,25.30
2019-04-10T03:03:44.651Z,30.83
2019-04-10T03:06:11.491Z,27.77
2019-04-10T03:08:54.923Z,25.97
2019-04-10T03:11:10.562Z,26.77
2019-04-10T03:13:35.788Z,28.53
2019-04-10T03:16:03.125Z,26.93
2019-04-10T03:18:29.336Z,26.77
2019-04-10T03:20:56.385Z,26.27
2019-04-10T03:23:23.202Z,25.40
2019-04-10T03:25:49.416Z,26.07
2019-04-10T03:28:16.601Z,25.30
2019-04-10T03:30:44.300Z,25.87
2019-04-10T03:33:31.161Z,26.70
2019-04-10T03:35:57.029Z,28.00
2019-04-10T03:38:23.754Z,27.00
2019-04-10T03:40:49.926Z,27.27
2019-04-10T03:43:15.988Z,26.80
2019-04-10T03:45:42.036Z,27.27
2019-04-10T03:48:08.465Z,27.50
2019-04-10T03:50:34.677Z,24.50
2019-04-10T03:53:00.735Z,26.27
2019-04-10T03:55:27.115Z,25.17
2019-04-10T03:57:53.435Z,25.60
2019-04-10T04:00:20.946Z,26.70
2019-04-10T04:02:48.148Z,26.07
2019-04-10T04:05:14.755Z,27.20
2019-04-10T04:07:41.106Z,28.63
2019-04-10T04:10:09.312Z,27.60
2019-04-10T04:12:35.615Z,26.83
2019-04-10T04:15:03.545Z,27.60
2019-04-10T04:17:30.461Z,27.03
2019-04-10T04:19:56.742Z,26.40
2019-04-10T04:22:22.936Z,25.63
2019-04-10T04:24:50.252Z,25.47
2019-04-10T04:27:17.507Z,25.70
2019-04-10T04:29:45.412Z,27.87
2019-04-10T04:32:11.635Z,26.20
2019-04-10T04:34:38.678Z,28.20
2019-04-10T04:37:05.155Z,28.40
2019-04-10T04:39:31.550Z,28.33
2019-04-10T04:41:58.721Z,27.43
2019-04-10T04:44:25.036Z,27.50
2019-04-10T04:46:52.633Z,29.90
2019-04-10T04:49:18.929Z,25.90
2019-04-10T04:51:45.698Z,26.30
2019-04-10T04:54:12.742Z,27.17
2019-04-10T04:56:40.014Z,27.03
2019-04-10T04:59:06.395Z,25.53
2019-04-10T05:01:32.452Z,25.93
2019-04-10T05:03:58.611Z,27.93
2019-04-10T05:06:24.661Z,29.33
2019-04-10T05:08:50.747Z,27.87
2019-04-10T05:11:18.303Z,27.83
2019-04-10T05:13:44.719Z,29.47
2019-04-10T05:16:11.367Z,26.53
2019-04-10T05:18:37.487Z,25.40
2019-04-10T05:21:03.531Z,25.10
2019-04-10T05:23:30.905Z,26.77
2019-04-10T05:25:58.999Z,23.30
2019-04-10T05:28:26.289Z,23.43
2019-04-10T05:30:52.958Z,23.20
2019-04-10T05:33:19.098Z,22.73
2019-04-10T05:35:45.164Z,24.37
2019-04-10T05:38:12.096Z,23.03
2019-04-10T05:40:38.466Z,23.27
2019-04-10T05:43:04.538Z,22.23
2019-04-10T05:45:31.634Z,22.30
2019-04-10T05:47:58.967Z,23.23
2019-04-10T05:50:25.750Z,22.53
2019-04-10T05:52:51.964Z,21.13
2019-04-10T05:55:18.011Z,20.97
2019-04-10T05:57:44.814Z,21.20
2019-04-10T06:00:13.459Z,22.40
2019-04-10T06:02:39.848Z,24.90
2019-04-10T06:05:07.747Z,22.73
2019-04-10T06:07:34.974Z,26.67
2019-04-10T06:10:05.001Z,22.67
2019-04-10T06:12:30.578Z,22.00
2019-04-10T06:14:57.151Z,22.35
2019-04-10T06:17:23.207Z,24.10
2019-04-10T06:19:49.423Z,21.47
2019-04-10T06:22:16.630Z,20.70
2019-04-10T06:24:42.838Z,21.63
2019-04-10T06:27:10.014Z,22.23
2019-04-10T06:29:37.156Z,21.37
2019-04-10T06:32:03.373Z,20.77
2019-04-10T06:34:30.165Z,23.80
2019-04-10T06:36:57.630Z,23.63
2019-04-10T06:39:24.768Z,22.93
2019-04-10T06:41:51.043Z,22.80
2019-04-10T06:44:17.485Z,23.23
2019-04-10T06:46:44.466Z,25.10
2019-04-10T06:49:10.812Z,23.40
2019-04-10T06:51:37.558Z,23.10
2019-04-10T06:54:08.099Z,21.17
2019-04-10T06:56:31.873Z,23.37
2019-04-10T06:58:58.334Z,21.10
2019-04-10T07:01:30.533Z,20.57
2019-04-10T07:04:01.722Z,24.17
2019-04-10T07:06:22.725Z,24.27
2019-04-10T07:08:50.861Z,22.67
2019-04-10T07:11:18.551Z,22.67
2019-04-10T07:13:44.930Z,25.17
2019-04-10T07:16:11.658Z,22.27
2019-04-10T07:18:39.682Z,21.47
2019-04-10T07:21:06.446Z,20.97
2019-04-10T07:23:33.793Z,24.27
2019-04-10T07:26:00.080Z,20.93
2019-04-10T07:28:26.277Z,21.23
2019-04-10T07:30:56.683Z,23.63
2019-04-10T07:33:21.058Z,21.33
2019-04-10T07:35:47.263Z,21.87
2019-04-10T07:38:13.931Z,22.77
2019-04-10T07:40:40.697Z,25.60
2019-04-10T07:43:06.926Z,22.43
2019-04-10T07:45:35.326Z,22.93
2019-04-10T07:48:00.939Z,23.07
2019-04-10T07:50:28.100Z,20.77
2019-04-10T07:52:55.642Z,22.40
2019-04-10T07:55:22.806Z,22.90
2019-04-10T07:57:50.663Z,22.30
2019-04-10T08:00:18.120Z,20.83
2019-04-10T08:02:44.393Z,21.63
2019-04-10T08:05:10.635Z,23.80
2019-04-10T08:07:38.766Z,24.13
2019-04-10T08:10:05.872Z,24.10
2019-04-10T08:12:39.388Z,23.07
2019-04-10T08:15:00.677Z,23.53
2019-04-10T08:17:26.923Z,24.40
2019-04-10T08:19:53.103Z,22.30
2019-04-10T08:22:20.169Z,22.17
2019-04-10T08:24:47.291Z,21.47
2019-04-10T08:27:13.733Z,21.27
2019-04-10T08:29:40.846Z,24.63
2019-04-10T08:32:07.762Z,21.90
2019-04-10T08:34:34.036Z,25.73
2019-04-10T08:37:00.123Z,24.50
2019-04-10T08:39:33.939Z,24.17
2019-04-10T08:41:54.399Z,24.50
2019-04-10T08:44:20.584Z,24.87
2019-04-10T08:46:46.639Z,25.13
2019-04-10T08:49:12.694Z,22.53
2019-04-10T08:51:39.452Z,22.47
2019-04-10T08:54:05.654Z,22.17
2019-04-10T08:56:32.296Z,23.57
2019-04-10T08:58:59.279Z,21.57
2019-04-10T09:01:25.455Z,22.40
2019-04-10T09:03:51.502Z,25.47
2019-04-10T09:06:17.590Z,24.03
2019-04-10T09:08:43.759Z,24.33
2019-04-10T09:11:09.811Z,24.17
2019-04-10T09:13:36.793Z,25.77
2019-04-10T09:16:03.148Z,24.90
2019-04-10T09:18:29.515Z,24.47
2019-04-10T09:20:55.675Z,21.87
2019-04-10T09:23:30.730Z,23.03
2019-04-10T09:25:49.703Z,22.30
2019-04-10T09:28:16.080Z,22.37
2019-04-10T09:30:42.760Z,22.63
2019-04-10T09:33:18.734Z,22.93
2019-04-10T09:35:38.358Z,24.43
2019-04-10T09:38:04.598Z,22.20
2019-04-10T09:40:32.100Z,21.33
2019-04-10T09:42:58.355Z,23.37
2019-04-10T09:45:25.183Z,24.10
2019-04-10T09:47:52.327Z,25.10
2019-04-10T09:50:19.325Z,22.30
2019-04-10T09:52:46.210Z,22.17
2019-04-10T09:55:12.432Z,21.47
2019-04-10T09:57:38.483Z,21.70
2019-04-10T10:00:07.442Z,21.30
2019-04-10T10:02:33.805Z,21.90
2019-04-10T10:05:00.046Z,23.87
2019-04-10T10:07:26.382Z,25.93
2019-04-10T10:09:52.536Z,23.37
2019-04-10T10:12:18.583Z,23.53
2019-04-10T10:14:44.640Z,23.50
2019-04-10T10:17:10.739Z,23.47
2019-04-10T10:19:36.881Z,21.93
2019-04-10T10:22:04.683Z,22.77
2019-04-10T10:24:31.126Z,21.43
2019-04-10T10:26:57.767Z,22.03
2019-04-10T10:29:23.947Z,21.83
2019-04-10T10:31:52.184Z,23.93
2019-04-10T10:34:18.471Z,24.93
2019-04-10T10:36:47.404Z,24.67
2019-04-10T10:39:17.183Z,25.63
2019-04-10T10:41:44.640Z,23.77
2019-04-10T10:44:11.143Z,24.17
2019-04-10T10:46:37.758Z,24.00
2019-04-10T10:49:04.230Z,25.03
2019-04-10T10:51:30.885Z,23.37
2019-04-10T10:54:00.088Z,22.97
2019-04-10T10:56:25.228Z,21.73
2019-04-10T10:58:53.024Z,22.27
2019-04-10T11:01:19.969Z,22.13
2019-04-10T11:03:46.687Z,24.93
2019-04-10T11:06:12.940Z,23.70
2019-04-10T11:08:39.848Z,24.23
2019-04-10T11:11:06.251Z,23.57
2019-04-10T11:13:33.157Z,23.97
2019-04-10T11:16:03.713Z,24.63
2019-04-10T11:18:28.615Z,23.50
2019-04-10T11:21:00.711Z,21.77
2019-04-10T11:23:24.464Z,21.83
2019-04-10T11:25:50.815Z,23.63
2019-04-10T11:28:18.563Z,21.97
2019-04-10T11:30:44.986Z,31.67
2019-04-10T11:33:12.391Z,22.20
2019-04-10T11:35:39.683Z,23.97
2019-04-10T11:38:07.204Z,23.90
2019-04-10T11:40:34.283Z,22.93
2019-04-10T11:43:03.535Z,23.67
2019-04-10T11:45:34.799Z,22.90
2019-04-10T11:47:56.755Z,22.60
2019-04-10T11:50:25.312Z,21.50
2019-04-10T11:55:21.005Z,21.60
2019-04-10T11:57:49.016Z,21.43
2019-04-10T12:00:20.358Z,22.07
2019-04-10T12:02:47.365Z,22.53
2019-04-10T12:08:14.518Z,23.00
2019-04-10T12:12:37.586Z,22.67
2019-04-10T12:15:05.980Z,22.87
2019-04-10T12:17:32.099Z,23.30
2019-04-10T12:19:58.179Z,22.47
2019-04-10T12:22:24.344Z,22.30
2019-04-10T12:24:51.616Z,21.63
2019-04-10T12:27:17.870Z,23.67
2019-04-10T12:29:43.919Z,23.10
2019-04-10T12:32:10.089Z,23.07
2019-04-10T12:34:36.195Z,24.17
2019-04-10T12:37:02.883Z,23.77
2019-04-10T12:39:30.061Z,23.33
2019-04-10T12:41:57.470Z,23.43
2019-04-10T12:44:23.719Z,23.23
2019-04-10T12:46:49.771Z,23.13
2019-04-10T12:49:15.827Z,22.40
2019-04-10T12:51:41.879Z,21.33
2019-04-10T12:54:08.009Z,21.97
2019-04-10T12:56:34.614Z,23.60
2019-04-10T12:59:01.367Z,22.07
2019-04-10T13:01:27.503Z,21.27
2019-04-10T13:03:53.713Z,24.83
2019-04-10T13:06:20.025Z,23.83
2019-04-10T13:08:57.830Z,23.00
2019-04-10T13:11:14.643Z,24.33
2019-04-10T13:13:40.712Z,22.37
2019-04-10T13:16:07.796Z,23.23
2019-04-10T13:18:33.940Z,22.57
2019-04-10T13:21:00.050Z,22.37
2019-04-10T13:23:26.151Z,24.40
2019-04-10T13:25:59.196Z,21.97
2019-04-10T13:28:20.258Z,21.90
2019-04-10T13:30:51.429Z,21.80
2019-04-10T13:33:14.290Z,22.90
2019-04-10T13:35:40.428Z,23.77
2019-04-10T13:38:06.763Z,24.03
2019-04-10T13:40:32.964Z,24.27
2019-04-10T13:42:59.015Z,24.27
2019-04-10T13:46:20.487Z,22.27
2019-04-10T13:48:47.248Z,22.97
2019-04-10T13:51:13.512Z,23.07
2019-04-10T13:53:39.900Z,26.67
2019-04-10T13:56:06.549Z,21.80
2019-04-10T13:58:33.209Z,21.50
2019-04-10T14:00:59.435Z,22.00
2019-04-10T14:03:26.073Z,21.23
2019-04-10T14:05:52.906Z,22.40
2019-04-10T14:08:19.530Z,24.10
2019-04-10T14:10:46.703Z,21.23
2019-04-10T14:13:13.665Z,23.90
2019-04-10T14:15:40.009Z,22.27
2019-04-10T14:18:06.562Z,23.00
2019-04-10T14:20:32.623Z,21.37
2019-04-10T14:23:06.391Z,21.80
2019-04-10T14:25:51.729Z,21.37
2019-04-10T14:28:21.858Z,21.20
2019-04-10T14:30:47.863Z,21.20
2019-04-10T14:33:14.906Z,23.10
2019-04-10T14:35:41.145Z,22.87
2019-04-10T14:38:08.579Z,22.00
2019-04-10T14:40:35.890Z,24.57
2019-04-10T14:43:03.148Z,23.03
2019-04-10T14:45:29.698Z,23.43
2019-04-10T14:47:56.959Z,23.50
2019-04-10T14:50:24.244Z,21.53
2019-04-10T14:52:50.331Z,22.07
2019-04-10T14:55:16.641Z,21.23
2019-04-10T14:57:43.271Z,23.17
2019-04-10T15:00:20.503Z,22.87
2019-04-10T15:02:46.581Z,21.50
2019-04-10T15:05:13.372Z,22.67
2019-04-10T15:07:39.564Z,24.97
2019-04-10T15:10:06.327Z,23.10
2019-04-10T15:12:32.383Z,23.47
2019-04-10T15:14:59.547Z,24.30
2019-04-10T15:17:25.807Z,24.37
2019-04-10T15:19:52.592Z,22.70
2019-04-10T15:22:20.034Z,22.30
2019-04-10T15:24:46.940Z,22.30
2019-04-10T15:27:13.238Z,22.23
2019-04-10T15:29:39.333Z,22.70
2019-04-10T15:32:06.356Z,21.57
2019-04-10T15:34:32.697Z,23.50
2019-04-10T15:36:58.747Z,23.30
2019-04-10T15:39:32.123Z,24.57
2019-04-10T15:41:52.779Z,23.60
2019-04-10T15:44:18.829Z,24.83
2019-04-10T15:46:45.631Z,24.03
2019-04-10T15:49:13.131Z,22.83
2019-04-10T15:51:39.437Z,23.17
2019-04-10T15:54:05.622Z,22.53
2019-04-10T15:56:31.904Z,22.40
2019-04-10T15:58:58.108Z,22.13
2019-04-10T16:01:26.922Z,21.60
2019-04-10T16:03:52.770Z,24.03
2019-04-10T16:06:18.876Z,23.97
2019-04-10T16:08:45.143Z,23.33
2019-04-10T16:11:30.018Z,24.97
2019-04-10T16:13:59.075Z,24.30
2019-04-10T16:16:33.975Z,23.97
2019-04-10T16:19:18.335Z,22.13
2019-04-10T16:21:45.729Z,23.13
2019-04-10T16:24:16.687Z,26.07
2019-04-10T16:26:43.287Z,22.30
2019-04-10T16:29:09.660Z,23.27
2019-04-10T16:31:35.761Z,23.23
2019-04-10T16:34:01.916Z,26.37
2019-04-10T16:36:27.996Z,25.00
2019-04-10T16:38:58.933Z,27.33
2019-04-10T16:41:26.799Z,23.67
2019-04-10T16:43:53.187Z,26.70
2019-04-10T16:46:20.414Z,23.37
2019-04-10T16:48:48.441Z,22.63
2019-04-10T16:51:14.744Z,24.27
2019-04-10T16:53:41.264Z,23.97
2019-04-10T16:56:07.471Z,22.17
2019-04-10T16:58:33.908Z,21.93
2019-04-10T17:01:00.160Z,25.00
2019-04-10T17:03:27.513Z,23.00
2019-04-10T17:05:53.849Z,24.23
2019-04-10T17:08:19.967Z,25.63
2019-04-10T17:10:46.040Z,24.43
2019-04-10T17:13:12.097Z,23.53
2019-04-10T17:15:39.833Z,25.73
2019-04-10T17:18:06.646Z,22.87
2019-04-10T17:20:32.965Z,22.03
2019-04-10T17:23:00.300Z,22.87
2019-04-10T17:25:26.645Z,22.30
2019-04-10T17:27:52.740Z,23.60
2019-04-10T17:30:19.904Z,21.90
2019-04-10T17:32:46.627Z,22.23
2019-04-10T17:35:13.778Z,24.57
2019-04-10T17:37:42.131Z,24.30
2019-04-10T17:40:25.021Z,24.20
2019-04-10T17:42:39.441Z,25.03
2019-04-10T17:45:07.278Z,25.17
2019-04-10T17:47:33.503Z,23.80
2019-04-10T17:50:00.275Z,22.63
2019-04-10T17:52:27.127Z,23.60
2019-04-10T17:54:53.470Z,23.60
2019-04-10T17:57:19.604Z,22.53
2019-04-10T17:59:46.832Z,24.87
2019-04-10T18:02:13.738Z,22.80
2019-04-10T18:04:40.136Z,24.70
2019-04-10T18:07:06.351Z,25.00
2019-04-10T18:09:33.303Z,23.40
2019-04-10T18:12:00.844Z,24.93
2019-04-10T18:14:27.215Z,25.40
2019-04-10T18:16:54.116Z,23.13
2019-04-10T18:19:21.287Z,21.60
2019-04-10T18:21:47.862Z,23.23
2019-04-10T18:24:14.160Z,22.07
2019-04-10T18:26:40.259Z,22.97
2019-04-10T18:29:06.408Z,23.17
2019-04-10T18:31:32.646Z,21.27
2019-04-10T18:33:58.845Z,24.87
2019-04-10T18:36:24.894Z,23.57
2019-04-10T18:38:51.484Z,22.53
2019-04-10T18:41:19.744Z,23.70
2019-04-10T18:43:46.624Z,25.70
2019-04-10T18:46:16.429Z,25.77
2019-04-10T18:48:41.814Z,21.97
2019-04-10T18:51:10.864Z,21.67
2019-04-10T18:53:37.216Z,22.23
2019-04-10T18:56:03.439Z,21.13
2019-04-10T18:58:31.688Z,22.83
2019-04-10T19:01:03.050Z,20.67
2019-04-10T19:03:45.186Z,22.90
2019-04-10T19:06:20.536Z,22.90
2019-04-10T19:09:00.044Z,23.37
2019-04-10T19:11:22.784Z,22.83
2019-04-10T19:13:42.866Z,23.97
2019-04-10T19:16:08.994Z,22.83
2019-04-10T19:18:35.609Z,23.03
2019-04-10T19:21:03.228Z,21.30
2019-04-10T19:23:29.491Z,22.20
2019-04-10T19:25:56.716Z,22.57
2019-04-10T19:28:31.678Z,24.33
2019-04-10T19:30:53.183Z,22.30
2019-04-10T19:33:19.394Z,21.77
2019-04-10T19:35:45.567Z,24.53
2019-04-10T19:38:11.730Z,24.33
2019-04-10T19:40:38.718Z,25.23
2019-04-10T19:43:06.060Z,24.37
2019-04-10T19:45:34.121Z,23.13
2019-04-10T19:48:01.169Z,24.53
2019-04-10T19:50:27.750Z,21.70
2019-04-10T19:52:54.936Z,21.80
2019-04-10T19:55:21.971Z,22.13
2019-04-10T19:57:48.198Z,22.00
2019-04-10T20:00:16.528Z,21.33
2019-04-10T20:02:43.572Z,21.87
2019-04-10T20:05:09.913Z,23.70
2019-04-10T20:07:36.086Z,22.40
2019-04-10T20:10:03.958Z,23.73
2019-04-10T20:12:30.754Z,23.33
2019-04-10T20:14:57.382Z,25.17
2019-04-10T20:17:24.053Z,23.13
2019-04-10T20:19:51.785Z,20.13
2019-04-10T20:22:18.852Z,22.23
2019-04-10T20:24:45.157Z,20.63
2019-04-10T20:27:11.982Z,22.00
2019-04-10T20:29:39.252Z,21.47
2019-04-10T20:32:05.839Z,21.87
2019-04-10T20:34:32.044Z,24.23
2019-04-10T20:37:00.949Z,23.10
2019-04-10T20:39:27.311Z,22.73
2019-04-10T20:41:56.298Z,25.40
2019-04-10T20:44:22.696Z,24.13
2019-04-10T20:46:48.886Z,22.57
2019-04-10T20:49:16.187Z,23.63
2019-04-10T20:51:42.519Z,22.33
2019-04-10T20:54:08.667Z,21.23
2019-04-10T20:56:34.877Z,22.50
2019-04-10T20:59:01.513Z,20.80
2019-04-10T21:01:28.792Z,21.87
2019-04-10T21:03:55.047Z,24.00
2019-04-10T21:06:21.117Z,22.70
2019-04-10T21:08:47.272Z,24.23
2019-04-10T21:11:13.872Z,23.13
2019-04-10T21:13:40.516Z,27.47
2019-04-10T21:16:07.119Z,23.33
2019-04-10T21:18:33.509Z,24.90
2019-04-10T21:20:59.670Z,23.20
2019-04-10T21:23:25.760Z,20.57
2019-04-10T21:25:51.927Z,21.00
2019-04-10T21:28:18.366Z,20.40
2019-04-10T21:30:46.580Z,22.23
2019-04-10T21:33:26.796Z,21.83
2019-04-10T21:35:54.072Z,23.20
2019-04-10T21:38:21.374Z,22.90
2019-04-10T21:40:47.535Z,22.23
2019-04-10T21:43:14.363Z,22.53
2019-04-10T21:45:41.286Z,23.43
2019-04-10T21:48:08.513Z,24.57
2019-04-10T21:50:35.594Z,21.77
2019-04-10T21:53:01.790Z,20.67
2019-04-10T21:55:29.064Z,21.83
2019-04-10T21:57:55.467Z,21.77
2019-04-10T22:00:40.817Z,20.37
2019-04-10T22:03:07.093Z,21.13
2019-04-10T22:05:35.113Z,23.73
2019-04-10T22:08:03.132Z,23.80
2019-04-10T22:10:32.125Z,23.00
2019-04-10T22:12:59.510Z,21.23
2019-04-10T22:15:30.942Z,21.97
2019-04-10T22:17:57.152Z,22.03
2019-04-10T22:20:23.548Z,21.30
2019-04-10T22:22:49.788Z,20.73
2019-04-10T22:25:15.839Z,20.73
2019-04-10T22:27:41.919Z,21.67
2019-04-10T22:30:08.449Z,20.67
2019-04-10T22:32:35.303Z,21.80
2019-04-10T22:35:03.378Z,21.90
2019-04-10T22:37:29.842Z,24.90
2019-04-10T22:39:56.641Z,22.60
2019-04-10T22:42:36.258Z,22.43
2019-04-10T22:44:50.781Z,22.40
2019-04-10T22:47:16.931Z,22.83
2019-04-10T22:49:43.108Z,21.50
2019-04-10T22:52:09.183Z,19.93
2019-04-10T22:54:35.240Z,22.07
2019-04-10T22:57:01.331Z,20.20
2019-04-10T22:59:28.396Z,20.40
2019-04-10T23:02:03.409Z,20.77
2019-04-10T23:04:22.628Z,22.57
2019-04-10T23:06:49.326Z,23.97
2019-04-10T23:09:15.865Z,22.63
2019-04-10T23:11:45.005Z,23.07
2019-04-10T23:14:10.232Z,23.57
2019-04-10T23:16:36.476Z,23.97
2019-04-10T23:19:03.641Z,20.70
2019-04-10T23:21:30.385Z,22.97
2019-04-10T23:23:57.142Z,20.53
2019-04-10T23:26:23.360Z,22.37
2019-04-10T23:28:49.571Z,21.17
2019-04-10T23:31:15.794Z,22.17
2019-04-10T23:33:42.007Z,24.10
2019-04-10T23:36:08.268Z,23.60
2019-04-10T23:38:35.415Z,21.87
2019-04-10T23:41:01.645Z,21.77
2019-04-10T23:43:27.701Z,22.67
2019-04-10T23:45:53.855Z,23.60
2019-04-10T23:48:20.427Z,23.50
2019-04-10T23:50:46.607Z,20.77
2019-04-10T23:53:12.661Z,21.53
2019-04-10T23:55:39.685Z,20.67
2019-04-10T23:58:09.603Z,20.77
